Terminal Aerodrome Forecast
Issued by NWS Grand Forks, ND

Home | Current Version | Previous Version | Text Only | Print | Product List | Glossary Off
Versions: 1 2 3 4 5 6 7 8 9 10 11 12 13 14 15 16 17 18 19 20 21 22 23 24 25

000
FTUS43 KFGF 280520
TAFGFK
TAF
KGFK 280520Z 2806/2906 32009KT P6SM -SHRA OVC090
     FM280800 27005KT P6SM FEW130
     FM281600 35013KT P6SM BKN035
     FM281800 35015G24KT P6SM VCSH BKN040
     FM290000 35016G24KT P6SM BKN045=

USA.gov is the U.S. government's official web portal to all federal, state and local government web resources and services.